createdAt,value
2018-03-26T00:01:15.443Z,18.73
2018-03-26T00:03:43.306Z,18.20
2018-03-26T00:06:11.585Z,18.47
2018-03-26T00:08:39.449Z,18.53
2018-03-26T00:11:07.310Z,16.33
2018-03-26T00:13:36.106Z,16.67
2018-03-26T00:16:03.970Z,17.30
2018-03-26T00:18:31.832Z,17.03
2018-03-26T00:20:59.706Z,16.50
2018-03-26T00:23:27.570Z,16.07
2018-03-26T00:25:55.432Z,15.80
2018-03-26T00:28:23.305Z,18.43
2018-03-26T00:30:51.169Z,16.53
2018-03-26T00:33:19.031Z,17.63
2018-03-26T00:35:46.908Z,17.67
2018-03-26T00:38:14.707Z,16.10
2018-03-26T00:40:43.358Z,14.90
2018-03-26T00:43:11.527Z,14.53
2018-03-26T00:45:39.389Z,15.07
2018-03-26T00:48:07.263Z,15.90
2018-03-26T00:50:35.126Z,15.30
2018-03-26T00:53:02.989Z,15.33
2018-03-26T00:55:30.862Z,16.60
2018-03-26T00:57:58.726Z,16.77
2018-03-26T01:00:26.588Z,15.60
2018-03-26T01:02:54.352Z,17.63
2018-03-26T01:05:22.226Z,17.90
2018-03-26T01:07:49.931Z,18.20
2018-03-26T01:10:18.568Z,19.40
2018-03-26T01:12:46.440Z,17.90
2018-03-26T01:15:14.135Z,19.67
2018-03-26T01:17:42.604Z,18.23
2018-03-26T01:20:10.382Z,19.30
2018-03-26T01:22:38.855Z,17.83
2018-03-26T01:25:07.319Z,19.97
2018-03-26T01:27:35.065Z,18.93
2018-03-26T01:30:02.771Z,18.17
2018-03-26T01:32:31.231Z,16.97
2018-03-26T01:34:59.212Z,16.13
2018-03-26T01:37:26.903Z,15.93
2018-03-26T01:39:54.594Z,15.13
2018-03-26T01:42:22.711Z,12.20
2018-03-26T01:44:50.547Z,13.67
2018-03-26T01:47:18.247Z,13.20
2018-03-26T01:49:47.034Z,14.53
2018-03-26T01:52:15.500Z,15.23
2018-03-26T01:54:43.200Z,13.77
2018-03-26T01:57:10.946Z,14.13
2018-03-26T01:59:39.413Z,15.47
2018-03-26T02:02:07.184Z,17.20
2018-03-26T02:04:35.787Z,16.47
2018-03-26T02:07:03.499Z,15.17
2018-03-26T02:09:31.954Z,14.33
2018-03-26T02:11:59.791Z,15.17
2018-03-26T02:14:28.255Z,15.13
2018-03-26T02:16:55.951Z,14.30
2018-03-26T02:19:23.695Z,14.13
2018-03-26T02:21:52.159Z,14.17
2018-03-26T02:24:20.619Z,14.27
2018-03-26T02:26:48.363Z,16.17
2018-03-26T02:29:16.059Z,13.13
2018-03-26T02:31:43.756Z,15.03
2018-03-26T02:34:12.269Z,13.83
2018-03-26T02:36:39.986Z,14.50
2018-03-26T02:39:08.453Z,14.00
2018-03-26T02:41:37.143Z,12.77
2018-03-26T02:44:05.625Z,12.43
2018-03-26T02:46:34.105Z,12.27
2018-03-26T02:49:02.912Z,13.13
2018-03-26T02:51:31.384Z,16.17
2018-03-26T02:53:59.850Z,16.27
2018-03-26T02:56:27.596Z,12.17
2018-03-26T02:58:55.324Z,9.47
2018-03-26T03:01:23.025Z,9.30
2018-03-26T03:03:51.679Z,9.47
2018-03-26T03:06:19.375Z,9.10
2018-03-26T03:08:47.860Z,12.20
2018-03-26T03:11:16.363Z,11.60
2018-03-26T03:13:44.051Z,9.90
2018-03-26T03:16:11.747Z,9.70
2018-03-26T03:18:39.499Z,9.30
2018-03-26T03:21:07.191Z,8.30
2018-03-26T03:23:35.654Z,7.30
2018-03-26T03:26:03.386Z,5.80
2018-03-26T03:28:31.075Z,5.17
2018-03-26T03:30:58.768Z,5.30
2018-03-26T03:33:26.510Z,4.80
2018-03-26T03:35:54.975Z,7.67
2018-03-26T03:38:22.671Z,10.13
2018-03-26T03:40:51.465Z,7.07
2018-03-26T03:43:19.159Z,12.20
2018-03-26T03:45:46.970Z,25.93
2018-03-26T03:48:15.659Z,8.83
2018-03-26T03:50:44.110Z,5.40
2018-03-26T03:53:11.803Z,6.43
2018-03-26T03:55:40.311Z,9.80
2018-03-26T03:58:08.002Z,6.10
2018-03-26T04:00:35.691Z,6.53
2018-03-26T04:03:03.671Z,5.40
2018-03-26T04:05:31.359Z,5.70
2018-03-26T04:07:59.825Z,6.80
2018-03-26T04:10:28.499Z,5.37
2018-03-26T04:12:56.187Z,5.20
2018-03-26T04:15:24.662Z,6.00
2018-03-26T04:17:53.375Z,5.07
2018-03-26T04:20:21.055Z,5.73
2018-03-26T04:22:48.755Z,5.97
2018-03-26T04:25:16.499Z,6.13
2018-03-26T04:27:44.191Z,5.23
2018-03-26T04:30:12.645Z,5.87
2018-03-26T04:32:40.387Z,5.83
2018-03-26T04:35:08.080Z,6.13
2018-03-26T04:37:35.771Z,7.00
2018-03-26T04:40:04.386Z,6.20
2018-03-26T04:42:32.084Z,7.43
2018-03-26T04:44:59.772Z,6.67
2018-03-26T04:47:28.275Z,7.30
2018-03-26T04:49:55.968Z,7.97
2018-03-26T04:52:23.671Z,8.73
2018-03-26T04:54:52.347Z,7.87
2018-03-26T04:57:20.811Z,7.40
2018-03-26T04:59:48.508Z,8.57
2018-03-26T05:02:17.061Z,8.97
2018-03-26T05:04:44.748Z,7.47
2018-03-26T05:07:13.220Z,8.07
2018-03-26T05:09:41.732Z,10.13
2018-03-26T05:12:09.427Z,9.17
2018-03-26T05:14:37.127Z,10.53
2018-03-26T05:17:05.635Z,10.00
2018-03-26T05:19:33.327Z,9.90
2018-03-26T05:22:01.019Z,11.33
2018-03-26T05:24:28.758Z,13.63
2018-03-26T05:26:56.458Z,10.67
2018-03-26T05:29:24.154Z,12.50
2018-03-26T05:31:51.906Z,9.60
2018-03-26T05:34:19.599Z,8.47
2018-03-26T05:36:47.297Z,9.10
2018-03-26T05:39:15.183Z,10.63
2018-03-26T05:41:43.647Z,11.23
2018-03-26T05:44:11.342Z,12.17
2018-03-26T05:46:39.090Z,9.10
2018-03-26T05:49:07.551Z,9.90
2018-03-26T05:51:35.244Z,9.13
2018-03-26T05:54:03.771Z,9.87
2018-03-26T05:56:31.471Z,9.03
2018-03-26T05:58:59.167Z,9.20
2018-03-26T06:01:27.015Z,9.10
2018-03-26T06:03:55.503Z,8.10
2018-03-26T06:06:23.968Z,9.33
2018-03-26T06:08:52.655Z,8.70
2018-03-26T06:11:21.115Z,17.63
2018-03-26T06:13:48.816Z,12.97
2018-03-26T06:16:16.767Z,12.40
2018-03-26T06:18:45.255Z,28.47
2018-03-26T06:21:13.742Z,27.50
2018-03-26T06:23:42.420Z,24.07
2018-03-26T06:26:10.907Z,20.13
2018-03-26T06:28:39.399Z,22.47
2018-03-26T06:31:07.305Z,17.13
2018-03-26T06:33:35.027Z,10.40
2018-03-26T06:36:02.751Z,10.77
2018-03-26T06:38:39.345Z,8.70
2018-03-26T06:41:07.831Z,9.10
2018-03-26T06:43:36.299Z,11.53
2018-03-26T06:46:04.817Z,9.20
2018-03-26T06:48:32.512Z,11.00
2018-03-26T06:51:00.216Z,16.43
2018-03-26T06:53:29.100Z,17.50
2018-03-26T06:55:57.575Z,11.40
2018-03-26T06:58:25.268Z,10.47
2018-03-26T07:00:53.024Z,10.00
2018-03-26T07:03:21.496Z,10.30
2018-03-26T07:05:49.975Z,9.83
2018-03-26T07:08:18.481Z,9.50
2018-03-26T07:10:46.183Z,9.73
2018-03-26T07:13:13.888Z,10.00
2018-03-26T07:15:42.404Z,12.10
2018-03-26T07:18:10.130Z,11.10
2018-03-26T07:20:38.603Z,11.90
2018-03-26T07:23:07.144Z,12.73
2018-03-26T07:25:34.872Z,13.27
2018-03-26T07:28:02.589Z,14.77
2018-03-26T07:30:30.475Z,24.13
2018-03-26T07:32:58.176Z,21.20
2018-03-26T07:35:25.871Z,18.70
2018-03-26T07:37:53.635Z,17.17
2018-03-26T07:40:21.331Z,16.40
2018-03-26T07:42:49.808Z,19.23
2018-03-26T07:45:18.319Z,19.80
2018-03-26T07:47:46.016Z,17.93
2018-03-26T07:50:14.482Z,19.83
2018-03-26T07:52:42.236Z,17.13
2018-03-26T07:55:09.932Z,19.97
2018-03-26T07:57:37.641Z,23.40
2018-03-26T08:00:06.189Z,19.20
2018-03-26T08:02:33.895Z,19.23
2018-03-26T08:05:02.368Z,18.90
2018-03-26T08:07:30.967Z,20.93
2018-03-26T08:09:58.668Z,19.70
2018-03-26T08:12:26.368Z,22.47
2018-03-26T08:14:54.988Z,29.30
2018-03-26T08:17:22.702Z,20.03
2018-03-26T08:19:51.180Z,21.40
2018-03-26T08:22:19.796Z,20.43
2018-03-26T08:24:47.495Z,25.73
2018-03-26T08:27:15.198Z,18.10
2018-03-26T08:29:43.083Z,17.17
2018-03-26T08:32:11.547Z,15.33
2018-03-26T08:34:40.012Z,13.07
2018-03-26T08:37:07.999Z,13.23
2018-03-26T08:39:36.468Z,13.10
2018-03-26T08:42:04.199Z,14.50
2018-03-26T08:44:31.947Z,12.97
2018-03-26T08:46:59.645Z,14.67
2018-03-26T08:49:27.348Z,14.57
2018-03-26T08:51:55.300Z,15.17
2018-03-26T08:54:23.008Z,14.97
2018-03-26T08:56:51.475Z,14.33
2018-03-26T08:59:19.320Z,14.53
2018-03-26T09:01:47.783Z,17.27
2018-03-26T09:04:15.483Z,13.87
2018-03-26T09:06:43.243Z,13.53
2018-03-26T09:09:10.945Z,13.63
2018-03-26T09:11:38.647Z,14.93
2018-03-26T09:14:06.399Z,12.03
2018-03-26T09:16:34.113Z,14.10
2018-03-26T09:19:02.596Z,13.50
2018-03-26T09:21:31.108Z,18.23
2018-03-26T09:23:58.815Z,16.70
2018-03-26T09:26:26.516Z,20.33
2018-03-26T09:28:54.463Z,24.57
2018-03-26T09:31:25.603Z,19.87
2018-03-26T09:33:53.303Z,22.63
2018-03-26T09:36:21.075Z,16.87
2018-03-26T09:38:48.772Z,17.17
2018-03-26T09:41:16.475Z,17.10
2018-03-26T09:43:45.000Z,17.23
2018-03-26T09:46:12.728Z,28.07
2018-03-26T09:48:41.191Z,15.33
2018-03-26T09:51:09.720Z,13.20
2018-03-26T09:53:37.424Z,23.90
2018-03-26T09:56:05.124Z,17.57
2018-03-26T09:58:33.167Z,18.27
2018-03-26T10:01:01.641Z,13.13
2018-03-26T10:03:30.119Z,15.17
2018-03-26T10:05:58.199Z,15.20
2018-03-26T10:08:25.897Z,15.47
2018-03-26T10:10:53.605Z,15.67
2018-03-26T10:13:21.700Z,16.97
2018-03-26T10:15:50.176Z,16.37
2018-03-26T10:18:17.880Z,16.07
2018-03-26T10:20:45.731Z,16.53
2018-03-26T10:23:13.436Z,16.83
2018-03-26T10:25:41.136Z,16.43
2018-03-26T10:28:10.572Z,16.33
2018-03-26T10:30:38.287Z,17.53
2018-03-26T10:33:06.751Z,18.67
2018-03-26T10:35:35.269Z,19.07
2018-03-26T10:38:02.969Z,19.97
2018-03-26T10:40:30.672Z,20.20
2018-03-26T10:42:59.193Z,19.53
2018-03-26T10:45:26.892Z,20.90
2018-03-26T10:47:54.595Z,20.70
2018-03-26T10:50:22.535Z,20.33
2018-03-26T10:52:51.011Z,20.57
2018-03-26T10:55:19.483Z,22.17
2018-03-26T10:57:47.235Z,24.87
2018-03-26T11:00:14.936Z,25.27
2018-03-26T11:02:43.407Z,28.10
2018-03-26T11:05:11.935Z,24.70
2018-03-26T11:07:39.667Z,26.13
2018-03-26T11:10:08.152Z,25.73
2018-03-26T11:12:35.998Z,25.70
2018-03-26T11:15:04.517Z,25.23
2018-03-26T11:17:32.228Z,24.40
2018-03-26T11:20:00.107Z,25.03
2018-03-26T11:22:28.603Z,24.33
2018-03-26T11:24:56.302Z,25.20
2018-03-26T11:27:24.115Z,25.63
2018-03-26T11:29:53.368Z,26.17
2018-03-26T11:32:21.241Z,26.63
2018-03-26T11:34:49.152Z,32.60
2018-03-26T11:37:17.635Z,40.40
2018-03-26T11:39:46.168Z,35.40
2018-03-26T11:42:14.019Z,28.57
2018-03-26T11:44:41.742Z,29.40
2018-03-26T11:47:10.227Z,36.03
2018-03-26T11:49:38.914Z,32.97
2018-03-26T11:52:07.396Z,34.27
2018-03-26T11:54:35.883Z,35.27
2018-03-26T11:57:04.417Z,31.57
2018-03-26T11:59:32.132Z,33.53
2018-03-26T12:01:59.831Z,32.53
2018-03-26T12:04:27.596Z,32.73
2018-03-26T12:06:55.306Z,44.37
2018-03-26T12:09:23.791Z,46.23
2018-03-26T12:11:53.396Z,36.43
2018-03-26T12:14:21.884Z,36.73
2018-03-26T12:16:50.361Z,32.17
2018-03-26T12:19:18.899Z,37.97
2018-03-26T12:21:46.606Z,32.73
2018-03-26T12:24:26.841Z,31.57
2018-03-26T12:26:54.552Z,33.67
2018-03-26T12:29:47.020Z,31.37
2018-03-26T12:32:14.731Z,35.53
2018-03-26T12:34:55.096Z,30.13
2018-03-26T12:37:23.574Z,33.73
2018-03-26T12:39:52.096Z,39.83
2018-03-26T12:42:19.871Z,32.63
2018-03-26T12:44:59.499Z,32.27
2018-03-26T12:47:27.639Z,31.00
2018-03-26T12:49:56.483Z,28.93
2018-03-26T12:52:36.174Z,34.13
2018-03-26T12:55:04.652Z,36.27
2018-03-26T12:57:45.008Z,30.67
2018-03-26T13:00:13.503Z,30.67
2018-03-26T13:02:41.992Z,34.33
2018-03-26T13:05:09.883Z,32.40
2018-03-26T13:07:37.607Z,31.43
2018-03-26T13:10:06.095Z,31.57
2018-03-26T13:12:34.623Z,37.67
2018-03-26T13:15:02.336Z,42.73
2018-03-26T13:17:30.820Z,36.33
2018-03-26T13:19:58.673Z,36.37
2018-03-26T13:22:27.156Z,33.70
2018-03-26T13:24:55.635Z,34.73
2018-03-26T13:27:24.260Z,339.40
2018-03-26T13:29:51.979Z,151.40
2018-03-26T13:32:20.472Z,56.20
2018-03-26T13:34:48.250Z,49.47
2018-03-26T13:37:15.971Z,57.60
2018-03-26T13:39:44.467Z,48.70
2018-03-26T13:42:12.609Z,34.80
2018-03-26T13:44:41.096Z,39.87
2018-03-26T13:47:09.580Z,34.93
2018-03-26T13:49:38.103Z,32.67
2018-03-26T13:52:05.870Z,103.00
2018-03-26T13:54:33.640Z,44.13
2018-03-26T13:57:01.651Z,38.20
2018-03-26T13:59:30.136Z,39.80
2018-03-26T14:01:58.623Z,34.07
2018-03-26T14:04:27.152Z,35.87
2018-03-26T14:06:54.867Z,32.97
2018-03-26T14:09:36.160Z,29.70
2018-03-26T14:12:15.708Z,51.30
2018-03-26T14:14:55.272Z,30.23
2018-03-26T14:17:34.785Z,30.30
2018-03-26T14:20:02.732Z,31.67
2018-03-26T14:22:31.223Z,30.83
2018-03-26T14:24:59.747Z,28.80
2018-03-26T14:27:27.769Z,30.40
2018-03-26T14:29:56.255Z,27.80
2018-03-26T14:32:24.831Z,25.33
2018-03-26T14:35:05.202Z,28.60
2018-03-26T14:37:33.683Z,29.17
2018-03-26T14:40:02.168Z,27.33
2018-03-26T14:42:30.792Z,31.63
2018-03-26T14:44:58.513Z,33.77
2018-03-26T14:47:26.248Z,49.90
2018-03-26T14:49:54.013Z,55.73
2018-03-26T14:52:21.742Z,32.93
2018-03-26T14:54:49.465Z,32.87
2018-03-26T14:57:18.244Z,41.93
2018-03-26T14:59:46.727Z,32.10
2018-03-26T15:02:15.203Z,28.77
2018-03-26T15:04:43.731Z,32.00
2018-03-26T15:07:11.450Z,34.50
2018-03-26T15:09:39.200Z,40.60
2018-03-26T15:12:07.177Z,35.87
2018-03-26T15:14:35.664Z,31.77
2018-03-26T15:17:04.171Z,35.43
2018-03-26T15:19:31.931Z,32.93
2018-03-26T15:21:59.636Z,35.27
2018-03-26T15:24:27.352Z,35.50
2018-03-26T15:26:55.112Z,51.80
2018-03-26T15:29:22.822Z,48.63
2018-03-26T15:31:50.539Z,55.10
2018-03-26T15:34:19.052Z,40.87
2018-03-26T15:36:46.813Z,54.77
2018-03-26T15:39:14.536Z,56.53
2018-03-26T15:41:43.065Z,43.93
2018-03-26T15:44:10.779Z,47.63
2018-03-26T15:46:39.288Z,46.80
2018-03-26T15:49:07.052Z,40.87
2018-03-26T15:51:34.763Z,44.27
2018-03-26T15:54:02.491Z,54.13
2018-03-26T15:56:30.260Z,40.27
2018-03-26T15:58:57.987Z,39.07
2018-03-26T16:01:26.464Z,43.10
2018-03-26T16:03:55.340Z,42.70
2018-03-26T16:06:23.064Z,46.27
2018-03-26T16:08:50.804Z,47.20
2018-03-26T16:11:18.748Z,46.77
2018-03-26T16:13:47.231Z,44.90
2018-03-26T16:16:15.715Z,39.77
2018-03-26T16:18:44.239Z,41.03
2018-03-26T16:21:11.950Z,38.97
2018-03-26T16:23:40.436Z,30.70
2018-03-26T16:26:09.211Z,36.87
2018-03-26T16:28:36.911Z,36.20
2018-03-26T16:31:04.664Z,33.07
2018-03-26T16:33:33.185Z,39.80
2018-03-26T16:36:00.891Z,41.07
2018-03-26T16:38:28.603Z,45.93
2018-03-26T16:40:56.528Z,50.77
2018-03-26T16:43:25.023Z,42.77
2018-03-26T16:45:52.789Z,42.33
2018-03-26T16:48:20.575Z,35.77
2018-03-26T16:50:48.293Z,36.63
2018-03-26T16:53:17.513Z,42.03
2018-03-26T16:55:46.047Z,50.43
2018-03-26T16:58:13.763Z,59.63
2018-03-26T17:00:42.072Z,57.63
2018-03-26T17:03:10.123Z,56.80
2018-03-26T17:05:37.832Z,38.73
2018-03-26T17:08:06.312Z,38.10
2018-03-26T17:10:35.111Z,38.03
2018-03-26T17:13:02.819Z,39.10
2018-03-26T17:15:30.534Z,46.67
2018-03-26T17:17:58.296Z,47.53
2018-03-26T17:20:25.995Z,45.23
2018-03-26T17:22:53.700Z,43.60
2018-03-26T17:25:22.235Z,53.60
2018-03-26T17:27:49.939Z,43.47
2018-03-26T17:30:17.664Z,45.37
2018-03-26T17:32:45.607Z,42.33
2018-03-26T17:35:13.315Z,43.77
2018-03-26T17:37:41.020Z,44.57
2018-03-26T17:40:09.552Z,32.63
2018-03-26T17:42:37.264Z,31.33
2018-03-26T17:45:05.777Z,34.33
2018-03-26T17:47:33.970Z,29.30
2018-03-26T17:50:01.700Z,36.17
2018-03-26T17:52:29.459Z,32.93
2018-03-26T17:54:58.071Z,35.30
2018-03-26T17:57:25.779Z,36.60
2018-03-26T17:59:53.491Z,32.00
2018-03-26T18:02:21.476Z,34.73
2018-03-26T18:04:50.063Z,40.60
2018-03-26T18:07:18.543Z,44.93
2018-03-26T18:09:47.071Z,46.43
2018-03-26T18:12:14.792Z,47.47
2018-03-26T18:14:43.272Z,42.47
2018-03-26T18:17:11.887Z,38.33
2018-03-26T18:19:39.822Z,39.50
2018-03-26T18:22:08.359Z,44.53
2018-03-26T18:24:36.187Z,41.87
2018-03-26T18:27:03.928Z,40.97
2018-03-26T18:31:51.896Z,43.30
2018-03-26T18:34:20.469Z,45.47
2018-03-26T18:36:49.805Z,35.73
2018-03-26T18:39:18.428Z,29.40
2018-03-26T18:41:47.033Z,32.83
2018-03-26T18:44:16.380Z,31.67
2018-03-26T18:46:45.001Z,34.57
2018-03-26T18:49:13.568Z,42.67
2018-03-26T18:51:42.145Z,51.70
2018-03-26T18:54:11.589Z,75.60
2018-03-26T18:56:40.957Z,51.63
2018-03-26T18:59:09.533Z,52.00
2018-03-26T19:01:38.309Z,49.47
2018-03-26T19:04:06.889Z,57.37
2018-03-26T19:06:35.458Z,51.47
2018-03-26T19:09:04.313Z,57.67
2018-03-26T19:11:33.717Z,64.50
2018-03-26T19:14:02.286Z,66.33
2018-03-26T19:16:30.910Z,50.67
2018-03-26T19:18:59.494Z,36.77
2018-03-26T19:21:28.072Z,35.47
2018-03-26T19:23:56.731Z,30.67
2018-03-26T19:26:25.297Z,45.63
2018-03-26T19:28:53.869Z,42.20
2018-03-26T19:31:23.470Z,40.63
2018-03-26T19:33:52.158Z,41.00
2018-03-26T19:36:20.768Z,39.03
2018-03-26T19:38:49.400Z,46.27
2018-03-26T19:41:18.046Z,40.93
2018-03-26T19:43:47.440Z,38.67
2018-03-26T19:46:16.210Z,31.40
2018-03-26T19:48:44.780Z,28.57
2018-03-26T19:51:13.379Z,25.27
2018-03-26T19:53:42.164Z,24.17
2018-03-26T19:56:10.752Z,29.47
2018-03-26T19:58:39.327Z,33.47
2018-03-26T20:01:07.954Z,30.33
2018-03-26T20:03:37.340Z,31.27
2018-03-26T20:06:05.928Z,39.60
2018-03-26T20:08:35.317Z,28.77
2018-03-26T20:11:03.950Z,28.40
2018-03-26T20:13:32.521Z,31.57
2018-03-26T20:16:01.257Z,31.47
2018-03-26T20:18:29.836Z,34.57
2018-03-26T20:20:58.408Z,31.90
2018-03-26T20:23:27.345Z,24.13
2018-03-26T20:25:57.430Z,21.87
2018-03-26T20:28:26.013Z,23.87
2018-03-26T20:30:54.785Z,27.87
2018-03-26T20:33:23.353Z,32.17
2018-03-26T20:35:51.932Z,29.10
2018-03-26T20:38:20.958Z,31.60
2018-03-26T20:40:49.513Z,27.27
2018-03-26T20:43:18.085Z,36.63
2018-03-26T20:45:46.710Z,32.13
2018-03-26T20:48:15.278Z,37.97
2018-03-26T20:50:43.844Z,28.50
2018-03-26T20:53:12.473Z,27.07
2018-03-26T20:55:41.045Z,27.13
2018-03-26T20:58:09.612Z,28.27
2018-03-26T21:00:38.415Z,28.00
2018-03-26T21:03:07.001Z,33.27
2018-03-26T21:05:35.568Z,35.07
2018-03-26T21:08:04.240Z,36.60
2018-03-26T21:10:33.544Z,33.43
2018-03-26T21:13:02.128Z,35.07
2018-03-26T21:15:30.896Z,32.00
2018-03-26T21:17:59.464Z,27.23
2018-03-26T21:20:28.801Z,27.10
2018-03-26T21:22:57.423Z,27.57
2018-03-26T21:25:25.996Z,27.53
2018-03-26T21:27:54.564Z,30.17
2018-03-26T21:30:23.188Z,28.27
2018-03-26T21:32:51.757Z,26.63
2018-03-26T21:35:20.328Z,25.33
2018-03-26T21:37:48.941Z,25.10
2018-03-26T21:40:17.517Z,24.20
2018-03-26T21:42:46.084Z,24.07
2018-03-26T21:45:14.801Z,22.27
2018-03-26T21:47:44.138Z,21.43
2018-03-26T21:50:12.748Z,22.03
2018-03-26T21:52:41.368Z,22.77
2018-03-26T21:55:09.934Z,21.70
2018-03-26T21:57:38.508Z,21.17
2018-03-26T22:00:21.214Z,22.27
2018-03-26T22:02:49.829Z,24.97
2018-03-26T22:05:19.926Z,22.57
2018-03-26T22:07:48.808Z,23.27
2018-03-26T22:10:17.384Z,22.97
2018-03-26T22:12:45.974Z,22.83
2018-03-26T22:15:14.693Z,23.13
2018-03-26T22:17:43.252Z,24.27
2018-03-26T22:20:11.834Z,22.27
2018-03-26T22:22:40.532Z,22.53
2018-03-26T22:25:09.144Z,22.10
2018-03-26T22:27:38.476Z,22.33
2018-03-26T22:30:07.497Z,23.13
2018-03-26T22:32:36.060Z,25.60
2018-03-26T22:35:04.637Z,25.63
2018-03-26T22:37:33.646Z,26.90
2018-03-26T22:40:02.294Z,25.53
2018-03-26T22:42:30.856Z,25.57
2018-03-26T22:45:00.236Z,27.23
2018-03-26T22:47:28.807Z,23.80
2018-03-26T22:49:57.368Z,24.83
2018-03-26T22:52:26.121Z,22.93
2018-03-26T22:54:55.452Z,23.13
2018-03-26T22:57:24.012Z,20.80
2018-03-26T22:59:52.642Z,20.97
2018-03-26T23:02:21.229Z,22.57
2018-03-26T23:04:49.793Z,20.10
2018-03-26T23:07:18.400Z,22.87
2018-03-26T23:09:46.984Z,23.53
2018-03-26T23:12:16.320Z,23.60
2018-03-26T23:14:45.692Z,22.60
2018-03-26T23:17:14.272Z,22.87
2018-03-26T23:19:42.862Z,23.50
2018-03-26T23:22:11.581Z,23.63
2018-03-26T23:24:40.908Z,24.90
2018-03-26T23:27:09.480Z,27.37
2018-03-26T23:29:38.396Z,27.90
2018-03-26T23:32:06.952Z,26.37
2018-03-26T23:34:35.513Z,27.10
2018-03-26T23:37:05.185Z,27.27
2018-03-26T23:39:33.748Z,26.80
2018-03-26T23:42:02.306Z,26.90
2018-03-26T23:44:31.745Z,26.27
2018-03-26T23:47:00.304Z,22.90
2018-03-26T23:49:28.862Z,24.57
2018-03-26T23:51:58.341Z,25.63
2018-03-26T23:54:27.710Z,25.50
2018-03-26T23:56:56.280Z,25.63
2018-03-26T23:59:25.165Z,25.37
